createdAt,value
2023-04-17T00:00:17.742Z,15.4923
2023-04-17T00:01:20.335Z,15.7231
2023-04-17T00:02:23.028Z,15.1692
2023-04-17T00:03:25.557Z,15.6462
2023-04-17T00:04:28.156Z,15.5462
2023-04-17T00:05:30.696Z,15.3923
2023-04-17T00:06:33.210Z,16.5154
2023-04-17T00:07:35.824Z,15.0231
2023-04-17T00:08:38.655Z,14.4923
2023-04-17T00:09:40.995Z,15.0923
2023-04-17T00:10:44.442Z,15.8077
2023-04-17T00:11:46.157Z,16.1154
2023-04-17T00:12:48.707Z,14.7846
2023-04-17T00:13:51.322Z,15.6231
2023-04-17T00:14:54.078Z,15.7462
2023-04-17T00:15:56.595Z,15.3077
2023-04-17T00:16:59.044Z,15.9077
2023-04-17T00:18:01.777Z,14.7385
2023-04-17T00:19:04.204Z,14.4231
2023-04-17T00:20:07.122Z,14.6308
2023-04-17T00:21:09.375Z,14.3615
2023-04-17T00:22:11.980Z,14.6231
2023-04-17T00:23:14.542Z,13.9846
2023-04-17T00:24:17.148Z,14.7846
2023-04-17T00:25:19.712Z,14.1923
2023-04-17T00:26:22.304Z,14.6231
2023-04-17T00:27:24.859Z,14.4538
2023-04-17T00:28:27.474Z,14.0308
2023-04-17T00:29:30.029Z,14.7692
2023-04-17T00:30:32.642Z,14.6846
2023-04-17T00:31:35.226Z,14.1538
2023-04-17T00:32:37.890Z,13.4308
2023-04-17T00:33:40.566Z,13.5923
2023-04-17T00:34:42.974Z,13.8462
2023-04-17T00:35:45.532Z,13.7385
2023-04-17T00:36:48.136Z,13.8615
2023-04-17T00:37:50.720Z,14.1692
2023-04-17T00:38:53.311Z,13.8923
2023-04-17T00:39:55.865Z,13.5231
2023-04-17T00:40:58.469Z,13.2923
2023-04-17T00:42:01.319Z,13.4615
2023-04-17T00:43:03.613Z,13.2615
2023-04-17T00:44:06.365Z,13.7308
2023-04-17T00:45:08.780Z,13.9846
2023-04-17T00:46:11.439Z,13.2231
2023-04-17T00:47:13.956Z,13.4154
2023-04-17T00:48:16.576Z,13.4538
2023-04-17T00:49:19.127Z,13.6154
2023-04-17T00:50:21.747Z,13.9538
2023-04-17T00:51:24.301Z,12.9615
2023-04-17T00:52:27.109Z,13.0154
2023-04-17T00:53:29.463Z,12.8692
2023-04-17T00:54:32.090Z,12.8538
2023-04-17T00:55:34.645Z,13.4154
2023-04-17T00:56:37.246Z,13.7923
2023-04-17T00:57:39.812Z,13.5231
2023-04-17T00:58:42.406Z,13.9615
2023-04-17T00:59:44.960Z,12.8769
2023-04-17T01:00:47.606Z,12.7462
2023-04-17T01:01:50.208Z,13.0769
2023-04-17T01:02:52.829Z,13.0462
2023-04-17T01:03:55.764Z,12.5846
2023-04-17T01:04:57.987Z,12.5308
2023-04-17T01:06:00.538Z,12.6923
2023-04-17T01:07:03.173Z,11.6769
2023-04-17T01:08:05.703Z,12.8462
2023-04-17T01:09:08.306Z,12.7923
2023-04-17T01:10:10.862Z,12.8769
2023-04-17T01:11:13.469Z,13.0462
2023-04-17T01:12:16.023Z,11.6154
2023-04-17T01:13:18.664Z,12.4077
2023-04-17T01:14:21.209Z,12.1000
2023-04-17T01:15:23.821Z,12.6154
2023-04-17T01:16:26.380Z,12.3692
2023-04-17T01:17:28.987Z,12.4077
2023-04-17T01:18:31.527Z,11.5692
2023-04-17T01:19:34.350Z,12.3846
2023-04-17T01:20:37.006Z,11.8154
2023-04-17T01:21:39.308Z,12.4308
2023-04-17T01:22:41.854Z,12.2846
2023-04-17T01:23:44.470Z,11.6923
2023-04-17T01:24:47.039Z,11.7462
2023-04-17T01:25:49.637Z,12.5000
2023-04-17T01:26:52.202Z,11.1769
2023-04-17T01:27:54.795Z,11.7462
2023-04-17T01:28:57.409Z,12.0769
2023-04-17T01:29:59.967Z,12.4077
2023-04-17T01:31:02.566Z,12.3846
2023-04-17T01:32:05.134Z,12.0538
2023-04-17T01:33:07.707Z,12.4923
2023-04-17T01:34:10.306Z,12.0077
2023-04-17T01:35:12.874Z,11.7077
2023-04-17T01:36:15.485Z,11.5308
2023-04-17T01:37:18.041Z,11.5538
2023-04-17T01:38:20.664Z,12.5231
2023-04-17T01:39:23.508Z,11.4846
2023-04-17T01:40:25.835Z,11.4538
2023-04-17T01:41:28.401Z,11.8385
2023-04-17T01:42:30.990Z,11.5615
2023-04-17T01:43:33.569Z,10.9154
2023-04-17T01:44:36.164Z,11.5923
2023-04-17T01:45:38.760Z,11.4077
2023-04-17T01:46:41.409Z,11.6615
2023-04-17T01:47:43.926Z,11.5692
2023-04-17T01:48:46.628Z,11.6385
2023-04-17T01:49:49.069Z,11.0231
2023-04-17T01:50:51.681Z,11.0154
2023-04-17T01:51:54.243Z,10.6846
2023-04-17T01:52:56.847Z,11.2846
2023-04-17T01:53:59.407Z,11.5769
2023-04-17T01:55:02.020Z,11.8154
2023-04-17T01:56:04.586Z,10.9923
2023-04-17T01:57:07.202Z,11.0615
2023-04-17T01:58:09.759Z,10.8846
2023-04-17T01:59:12.504Z,10.8615
2023-04-17T02:00:14.928Z,11.2615
2023-04-17T02:01:17.559Z,10.9308
2023-04-17T02:02:20.332Z,11.1538
2023-04-17T02:03:22.814Z,10.4538
2023-04-17T02:04:25.329Z,11.2000
2023-04-17T02:05:27.883Z,10.9769
2023-04-17T02:06:30.446Z,10.3385
2023-04-17T02:07:33.058Z,11.2615
2023-04-17T02:08:35.617Z,10.4615
2023-04-17T02:09:38.235Z,11.6615
2023-04-17T02:10:40.793Z,10.5000
2023-04-17T02:11:43.404Z,10.0923
2023-04-17T02:12:45.966Z,10.0538
2023-04-17T02:13:48.576Z,10.4615
2023-04-17T02:14:51.137Z,10.0077
2023-04-17T02:15:53.771Z,10.0769
2023-04-17T02:16:56.321Z,10.2923
2023-04-17T02:17:59.018Z,10.1154
2023-04-17T02:19:01.488Z,10.4462
2023-04-17T02:20:04.102Z,10.6000
2023-04-17T02:21:06.661Z,11.1769
2023-04-17T02:22:09.266Z,10.3000
2023-04-17T02:23:11.843Z,9.8846
2023-04-17T02:24:14.434Z,10.1923
2023-04-17T02:25:17.295Z,9.4769
2023-04-17T02:26:19.613Z,9.7385
2023-04-17T02:27:22.163Z,10.4846
2023-04-17T02:28:24.783Z,10.6231
2023-04-17T02:29:27.355Z,9.9846
2023-04-17T02:30:29.942Z,9.5462
2023-04-17T02:31:32.546Z,9.4385
2023-04-17T02:32:35.139Z,9.3308
2023-04-17T02:33:37.685Z,9.9308
2023-04-17T02:34:40.273Z,10.4077
2023-04-17T02:35:42.829Z,9.7538
2023-04-17T02:36:45.453Z,10.1615
2023-04-17T02:37:48.017Z,10.1538
2023-04-17T02:38:50.612Z,9.5077
2023-04-17T02:39:53.183Z,9.4692
2023-04-17T02:40:55.778Z,9.6692
2023-04-17T02:41:58.332Z,9.6154
2023-04-17T02:43:00.952Z,9.5385
2023-04-17T02:44:03.513Z,10.0000
2023-04-17T02:45:06.121Z,9.3308
2023-04-17T02:46:08.825Z,10.1154
2023-04-17T02:47:11.289Z,9.4000
2023-04-17T02:48:13.855Z,9.4231
2023-04-17T02:49:16.449Z,10.2231
2023-04-17T02:50:19.017Z,10.0385
2023-04-17T02:51:21.623Z,9.3692
2023-04-17T02:52:24.237Z,9.2000
2023-04-17T02:53:26.783Z,9.9000
2023-04-17T02:54:29.340Z,9.1000
2023-04-17T02:55:31.946Z,9.2615
2023-04-17T02:56:34.517Z,9.3769
2023-04-17T02:57:37.113Z,9.2462
2023-04-17T02:58:39.711Z,8.9769
2023-04-17T02:59:42.292Z,9.5538
2023-04-17T03:00:44.853Z,9.2769
2023-04-17T03:01:47.504Z,9.3000
2023-04-17T03:02:50.155Z,8.7846
2023-04-17T03:03:52.911Z,8.8538
2023-04-17T03:04:55.170Z,8.6462
2023-04-17T03:05:57.780Z,9.3462
2023-04-17T03:07:00.337Z,8.7077
2023-04-17T03:08:02.943Z,9.2154
2023-04-17T03:09:05.518Z,8.5231
2023-04-17T03:10:08.118Z,9.1231
2023-04-17T03:11:10.670Z,8.5385
2023-04-17T03:12:13.285Z,8.8615
2023-04-17T03:13:15.840Z,9.0154
2023-04-17T03:14:18.484Z,8.7462
2023-04-17T03:15:21.032Z,8.8462
2023-04-17T03:16:23.910Z,8.7385
2023-04-17T03:17:26.201Z,8.9154
2023-04-17T03:18:28.795Z,8.5923
2023-04-17T03:19:31.338Z,8.7846
2023-04-17T03:20:33.956Z,9.2462
2023-04-17T03:21:36.505Z,8.6385
2023-04-17T03:22:39.109Z,8.2462
2023-04-17T03:23:41.673Z,8.3769
2023-04-17T03:24:44.525Z,8.7846
2023-04-17T03:25:46.849Z,8.9000
2023-04-17T03:26:49.480Z,8.4462
2023-04-17T03:27:52.014Z,8.1615
2023-04-17T03:28:54.618Z,8.1077
2023-04-17T03:29:57.199Z,8.2769
2023-04-17T03:30:59.788Z,8.4308
2023-04-17T03:32:02.455Z,8.5385
2023-04-17T03:33:05.009Z,8.2615
2023-04-17T03:34:07.514Z,8.6462
2023-04-17T03:35:10.120Z,8.4769
2023-04-17T03:36:12.685Z,8.3231
2023-04-17T03:37:15.296Z,8.4923
2023-04-17T03:38:17.861Z,8.4000
2023-04-17T03:39:20.854Z,7.6846
2023-04-17T03:40:23.030Z,7.8692
2023-04-17T03:41:25.637Z,8.5538
2023-04-17T03:42:28.203Z,8.2000
2023-04-17T03:43:30.804Z,8.5308
2023-04-17T03:44:33.358Z,8.4538
2023-04-17T03:45:36.233Z,8.2231
2023-04-17T03:46:38.527Z,8.0615
2023-04-17T03:47:41.167Z,8.4538
2023-04-17T03:48:43.703Z,7.7846
2023-04-17T03:49:46.310Z,7.7231
2023-04-17T03:50:48.898Z,8.4000
2023-04-17T03:51:51.477Z,8.0923
2023-04-17T03:52:54.035Z,8.2000
2023-04-17T03:53:56.642Z,7.9154
2023-04-17T03:54:59.201Z,7.7923
2023-04-17T03:56:01.814Z,7.8462
2023-04-17T03:57:04.382Z,8.0000
2023-04-17T03:58:06.992Z,8.0385
2023-04-17T03:59:09.785Z,7.7692
2023-04-17T04:00:12.161Z,7.8385
2023-04-17T04:01:14.793Z,7.5462
2023-04-17T04:02:17.435Z,7.8462
2023-04-17T04:03:20.042Z,7.7923
2023-04-17T04:04:22.827Z,8.4462
2023-04-17T04:05:25.402Z,8.2923
2023-04-17T04:06:27.664Z,7.8615
2023-04-17T04:07:30.269Z,8.0923
2023-04-17T04:08:32.835Z,7.5923
2023-04-17T04:09:35.396Z,7.5077
2023-04-17T04:10:37.999Z,7.8154
2023-04-17T04:11:40.554Z,7.4846
2023-04-17T04:12:43.165Z,7.1538
2023-04-17T04:13:45.722Z,7.8538
2023-04-17T04:14:48.326Z,7.9692
2023-04-17T04:15:50.900Z,7.3000
2023-04-17T04:16:53.496Z,7.5769
2023-04-17T04:17:56.109Z,7.0538
2023-04-17T04:18:58.676Z,7.1615
2023-04-17T04:20:01.269Z,7.8462
2023-04-17T04:21:03.838Z,7.4231
2023-04-17T04:22:06.959Z,6.9615
2023-04-17T04:23:08.989Z,7.1231
2023-04-17T04:24:11.552Z,7.5154
2023-04-17T04:25:14.169Z,7.7154
2023-04-17T04:26:16.713Z,7.2308
2023-04-17T04:27:19.322Z,6.9615
2023-04-17T04:28:21.883Z,7.0385
2023-04-17T04:29:24.493Z,7.3077
2023-04-17T04:30:27.060Z,7.6154
2023-04-17T04:31:29.843Z,7.5077
2023-04-17T04:32:32.298Z,7.2000
2023-04-17T04:33:35.898Z,7.0769
2023-04-17T04:34:37.380Z,7.4692
2023-04-17T04:35:40.007Z,7.5462
2023-04-17T04:36:42.553Z,7.3385
2023-04-17T04:37:45.164Z,7.7000
2023-04-17T04:38:47.726Z,7.2923
2023-04-17T04:39:50.325Z,7.0923
2023-04-17T04:40:52.944Z,7.2154
2023-04-17T04:41:55.502Z,6.9692
2023-04-17T04:42:58.073Z,7.7154
2023-04-17T04:44:00.669Z,7.3462
2023-04-17T04:45:03.239Z,6.9308
2023-04-17T04:46:05.831Z,7.0462
2023-04-17T04:47:08.546Z,7.0923
2023-04-17T04:48:10.995Z,7.2462
2023-04-17T04:49:13.621Z,7.2923
2023-04-17T04:50:17.388Z,7.0923
2023-04-17T04:51:18.755Z,6.7923
2023-04-17T04:52:21.340Z,6.7000
2023-04-17T04:53:24.123Z,7.0846
2023-04-17T04:54:26.514Z,7.2231
2023-04-17T04:55:29.062Z,7.6077
2023-04-17T04:56:33.040Z,7.0462
2023-04-17T04:57:34.229Z,6.5308
2023-04-17T04:58:36.841Z,6.9846
2023-04-17T04:59:39.402Z,6.8308
2023-04-17T05:00:42.052Z,6.4692
2023-04-17T05:01:44.866Z,6.8000
2023-04-17T05:02:47.278Z,6.6000
2023-04-17T05:03:49.874Z,6.3923
2023-04-17T05:04:52.367Z,6.7077
2023-04-17T05:05:54.903Z,6.8462
2023-04-17T05:06:57.612Z,6.3692
2023-04-17T05:08:00.070Z,6.2923
2023-04-17T05:09:02.650Z,6.9231
2023-04-17T05:10:05.285Z,6.7308
2023-04-17T05:11:07.819Z,6.8538
2023-04-17T05:12:10.508Z,6.8385
2023-04-17T05:13:13.084Z,6.9308
2023-04-17T05:14:15.731Z,6.6308
2023-04-17T05:15:18.247Z,6.9385
2023-04-17T05:16:20.882Z,6.4385
2023-04-17T05:17:23.432Z,6.8000
2023-04-17T05:18:26.015Z,7.2308
2023-04-17T05:19:28.564Z,6.9000
2023-04-17T05:20:31.184Z,6.9462
2023-04-17T05:21:33.735Z,6.7385
2023-04-17T05:22:36.339Z,6.2846
2023-04-17T05:23:38.891Z,6.3615
2023-04-17T05:24:41.507Z,6.5615
2023-04-17T05:25:44.064Z,6.6462
2023-04-17T05:26:46.668Z,6.5692
2023-04-17T05:27:49.281Z,6.3462
2023-04-17T05:28:51.828Z,6.6462
2023-04-17T05:29:54.385Z,6.8154
2023-04-17T05:30:56.989Z,7.2846
2023-04-17T05:31:59.604Z,6.4154
2023-04-17T05:33:02.222Z,6.5923
2023-04-17T05:34:04.868Z,6.4846
2023-04-17T05:35:07.344Z,6.3846
2023-04-17T05:36:09.893Z,6.5077
2023-04-17T05:37:12.484Z,6.5077
2023-04-17T05:38:15.045Z,6.4846
2023-04-17T05:39:17.665Z,6.2846
2023-04-17T05:40:20.210Z,6.5231
2023-04-17T05:41:22.822Z,6.0077
2023-04-17T05:42:25.379Z,6.1231
2023-04-17T05:43:28.005Z,6.2769
2023-04-17T05:44:30.548Z,6.1385
2023-04-17T05:45:33.329Z,6.5615
2023-04-17T05:46:35.717Z,6.3692
2023-04-17T05:47:38.515Z,6.1923
2023-04-17T05:48:40.876Z,6.2231
2023-04-17T05:49:43.496Z,6.2923
2023-04-17T05:50:46.058Z,6.0000
2023-04-17T05:51:48.672Z,6.4000
2023-04-17T05:52:51.236Z,6.0077
2023-04-17T05:53:53.851Z,6.4615
2023-04-17T05:54:56.389Z,6.2923
2023-04-17T05:55:58.995Z,6.3154
2023-04-17T05:57:01.555Z,6.4385
2023-04-17T05:58:16.862Z,6.2154
2023-04-17T05:59:07.753Z,5.8769
2023-04-17T06:00:09.336Z,5.5846
2023-04-17T06:01:11.914Z,5.8154
2023-04-17T06:02:14.587Z,5.7077
2023-04-17T06:03:18.162Z,5.6769
2023-04-17T06:04:19.987Z,5.6000
2023-04-17T06:05:22.327Z,5.6846
2023-04-17T06:06:24.846Z,5.9462
2023-04-17T06:07:27.401Z,5.9692
2023-04-17T06:08:30.016Z,5.7385
2023-04-17T06:09:32.581Z,5.9692
2023-04-17T06:10:35.198Z,5.9462
2023-04-17T06:11:37.748Z,5.9077
2023-04-17T06:12:40.361Z,5.8308
2023-04-17T06:13:42.966Z,6.6692
2023-04-17T06:14:45.525Z,6.2692
2023-04-17T06:15:48.077Z,6.3077
2023-04-17T06:16:50.850Z,6.3462
2023-04-17T06:17:53.319Z,6.2154
2023-04-17T06:18:55.860Z,6.2692
2023-04-17T06:19:58.414Z,6.5231
2023-04-17T06:21:01.051Z,6.0077
2023-04-17T06:22:03.584Z,6.1462
2023-04-17T06:23:06.196Z,6.2692
2023-04-17T06:24:08.764Z,6.1231
2023-04-17T06:25:11.915Z,6.0462
2023-04-17T06:26:13.929Z,5.7462
2023-04-17T06:27:16.533Z,6.8769
2023-04-17T06:28:19.099Z,6.2000
2023-04-17T06:29:21.734Z,5.7615
2023-04-17T06:30:24.256Z,5.7308
2023-04-17T06:31:26.888Z,5.8769
2023-04-17T06:32:29.484Z,5.7538
2023-04-17T06:33:32.062Z,5.8846
2023-04-17T06:34:34.604Z,5.8154
2023-04-17T06:35:37.206Z,6.0538
2023-04-17T06:36:39.792Z,5.9077
2023-04-17T06:37:42.576Z,5.8923
2023-04-17T06:38:44.933Z,5.9462
2023-04-17T06:39:47.535Z,5.9308
2023-04-17T06:40:52.131Z,6.1385
2023-04-17T06:41:52.703Z,5.9923
2023-04-17T06:42:55.308Z,5.8000
2023-04-17T06:43:57.865Z,6.0000
2023-04-17T06:45:00.434Z,7.8692
2023-04-17T06:46:03.054Z,8.6000
2023-04-17T06:47:05.593Z,7.7615
2023-04-17T06:48:08.201Z,7.2385
2023-04-17T06:49:11.038Z,7.4538
2023-04-17T06:50:13.387Z,7.9462
2023-04-17T06:51:15.917Z,8.8769
2023-04-17T06:52:18.525Z,7.3308
2023-04-17T06:53:21.086Z,6.6846
2023-04-17T06:54:23.700Z,7.9077
2023-04-17T06:55:26.277Z,6.8538
2023-04-17T06:56:28.893Z,7.9538
2023-04-17T06:57:31.412Z,8.6538
2023-04-17T06:58:34.030Z,7.7769
2023-04-17T06:59:36.575Z,7.3385
2023-04-17T07:00:39.200Z,9.7000
2023-04-17T07:01:41.826Z,8.3308
2023-04-17T07:02:44.433Z,7.9154
2023-04-17T07:03:47.082Z,7.3231
2023-04-17T07:04:49.784Z,8.1462
2023-04-17T07:05:52.084Z,6.7538
2023-04-17T07:06:54.684Z,7.6308
2023-04-17T07:07:57.237Z,8.2308
2023-04-17T07:09:00.120Z,8.4538
2023-04-17T07:10:02.413Z,8.1769
2023-04-17T07:11:05.048Z,7.3077
2023-04-17T07:12:07.589Z,6.9462
2023-04-17T07:13:10.192Z,8.8385
2023-04-17T07:14:12.973Z,6.7231
2023-04-17T07:15:15.523Z,6.2692
2023-04-17T07:16:17.981Z,7.3846
2023-04-17T07:17:20.613Z,7.1462
2023-04-17T07:18:23.095Z,7.7769
2023-04-17T07:19:25.703Z,7.1923
2023-04-17T07:20:28.283Z,6.7000
2023-04-17T07:21:30.872Z,7.3308
2023-04-17T07:22:33.434Z,7.2385
2023-04-17T07:23:36.035Z,7.8308
2023-04-17T07:24:38.603Z,8.2000
2023-04-17T07:25:41.235Z,7.5769
2023-04-17T07:26:44.040Z,7.1769
2023-04-17T07:27:46.382Z,5.9538
2023-04-17T07:28:48.942Z,6.6154
2023-04-17T07:29:51.564Z,7.0077
2023-04-17T07:30:54.107Z,6.8077
2023-04-17T07:31:56.928Z,6.6154
2023-04-17T07:32:59.534Z,6.2538
2023-04-17T07:34:01.925Z,6.4538
2023-04-17T07:35:04.494Z,7.2385
2023-04-17T07:36:07.072Z,6.9000
2023-04-17T07:37:09.632Z,6.9385
2023-04-17T07:38:12.254Z,6.8538
2023-04-17T07:39:14.855Z,6.7231
2023-04-17T07:40:17.410Z,7.4923
2023-04-17T07:41:19.971Z,7.0154
2023-04-17T07:42:22.661Z,7.4615
2023-04-17T07:43:25.206Z,7.4923
2023-04-17T07:44:27.766Z,7.2385
2023-04-17T07:45:30.334Z,7.3154
2023-04-17T07:46:33.005Z,7.2462
2023-04-17T07:47:35.557Z,7.2077
2023-04-17T07:48:38.117Z,6.8769
2023-04-17T07:49:40.675Z,6.8769
2023-04-17T07:50:43.276Z,6.8154
2023-04-17T07:51:45.830Z,6.6462
2023-04-17T07:52:48.453Z,6.7923
2023-04-17T07:53:51.031Z,6.6385
2023-04-17T07:54:53.628Z,6.4308
2023-04-17T07:55:56.228Z,7.3538
2023-04-17T07:56:58.856Z,5.7923
2023-04-17T07:58:01.345Z,7.0538
2023-04-17T07:59:03.958Z,7.7154
2023-04-17T08:00:06.511Z,7.1000
2023-04-17T08:01:09.126Z,6.6385
2023-04-17T08:02:11.800Z,7.2308
2023-04-17T08:03:14.504Z,6.6846
2023-04-17T08:04:17.338Z,6.6000
2023-04-17T08:05:19.531Z,6.4615
2023-04-17T08:06:22.023Z,6.1923
2023-04-17T08:07:24.668Z,6.9846
2023-04-17T08:08:27.202Z,6.8923
2023-04-17T08:09:29.815Z,6.3077
2023-04-17T08:10:32.372Z,6.7154
2023-04-17T08:11:40.095Z,6.6308
2023-04-17T08:12:38.823Z,6.7154
2023-04-17T08:13:40.150Z,7.0417
2023-04-17T08:14:42.709Z,6.6692
2023-04-17T08:15:45.329Z,6.3692
2023-04-17T08:16:47.952Z,6.0077
2023-04-17T08:17:50.526Z,6.6769
2023-04-17T08:18:53.055Z,5.7923
2023-04-17T08:19:55.692Z,5.9615
2023-04-17T08:20:58.217Z,6.1308
2023-04-17T08:22:00.837Z,6.6385
2023-04-17T08:23:03.402Z,6.8615
2023-04-17T08:24:06.003Z,6.0462
2023-04-17T08:25:08.557Z,6.4077
2023-04-17T08:26:11.167Z,6.0769
2023-04-17T08:27:13.730Z,7.0538
2023-04-17T08:28:16.379Z,6.3000
2023-04-17T08:29:18.951Z,6.2000
2023-04-17T08:30:21.496Z,6.3462
2023-04-17T08:31:24.177Z,6.4769
2023-04-17T08:32:26.674Z,6.1385
2023-04-17T08:33:29.224Z,6.5077
2023-04-17T08:34:31.987Z,5.8231
2023-04-17T08:35:34.389Z,5.7538
2023-04-17T08:36:37.001Z,5.6231
2023-04-17T08:37:39.569Z,5.7231
2023-04-17T08:38:42.208Z,6.2154
2023-04-17T08:39:44.730Z,5.8846
2023-04-17T08:40:47.357Z,5.9077
2023-04-17T08:41:49.893Z,6.6231
2023-04-17T08:42:52.505Z,6.0615
2023-04-17T08:43:55.078Z,5.9538
2023-04-17T08:44:57.666Z,6.3231
2023-04-17T08:46:00.604Z,5.9077
2023-04-17T08:47:02.840Z,5.7615
2023-04-17T08:48:05.424Z,6.4154
2023-04-17T08:49:08.015Z,5.8000
2023-04-17T08:50:10.595Z,6.0769
2023-04-17T08:51:13.178Z,6.9538
2023-04-17T08:52:15.746Z,6.7692
2023-04-17T08:53:18.341Z,5.7538
2023-04-17T08:54:20.897Z,5.5385
2023-04-17T08:55:23.522Z,5.6000
2023-04-17T08:56:26.076Z,5.6615
2023-04-17T08:57:28.675Z,6.3615
2023-04-17T08:58:31.236Z,6.1615
2023-04-17T08:59:33.867Z,6.4462
2023-04-17T09:00:36.435Z,5.7385
2023-04-17T09:01:39.089Z,5.5077
2023-04-17T09:02:41.716Z,5.8846
2023-04-17T09:03:44.338Z,5.4231
2023-04-17T09:04:46.859Z,5.6308
2023-04-17T09:05:49.359Z,5.3462
2023-04-17T09:06:52.025Z,5.1923
2023-04-17T09:07:54.528Z,4.9154
2023-04-17T09:08:57.086Z,6.0077
2023-04-17T09:09:59.708Z,5.6692
2023-04-17T09:11:02.276Z,6.0538
2023-04-17T09:12:04.890Z,5.8462
2023-04-17T09:13:07.474Z,5.2154
2023-04-17T09:14:10.037Z,5.9462
2023-04-17T09:15:12.603Z,5.5923
2023-04-17T09:16:15.281Z,5.3154
2023-04-17T09:17:17.770Z,6.0077
2023-04-17T09:18:20.451Z,5.8692
2023-04-17T09:19:23.133Z,4.9923
2023-04-17T09:20:25.772Z,5.6154
2023-04-17T09:21:28.174Z,5.0077
2023-04-17T09:22:30.792Z,4.8538
2023-04-17T09:23:33.352Z,5.2385
2023-04-17T09:24:36.316Z,5.5538
2023-04-17T09:25:38.514Z,6.0769
2023-04-17T09:26:41.135Z,5.6769
2023-04-17T09:27:43.682Z,5.3000
2023-04-17T09:28:46.303Z,5.2000
2023-04-17T09:29:48.854Z,5.1538
2023-04-17T09:30:51.466Z,5.2385
2023-04-17T09:31:54.095Z,5.4923
2023-04-17T09:32:56.785Z,5.6000
2023-04-17T09:33:59.216Z,4.8538
2023-04-17T09:35:01.825Z,5.1000
2023-04-17T09:36:04.401Z,5.1846
2023-04-17T09:37:07.969Z,4.7154
2023-04-17T09:38:09.559Z,5.0308
2023-04-17T09:39:12.242Z,5.5077
2023-04-17T09:40:14.723Z,5.0462
2023-04-17T09:41:17.407Z,5.1692
2023-04-17T09:42:19.914Z,5.0385
2023-04-17T09:43:22.442Z,5.4308
2023-04-17T09:44:25.057Z,5.7000
2023-04-17T09:45:48.604Z,5.5077
2023-04-17T09:46:30.250Z,5.5250
2023-04-17T09:47:32.838Z,4.5462
2023-04-17T09:48:35.368Z,5.3077
2023-04-17T09:49:38.198Z,4.8538
2023-04-17T09:50:40.527Z,6.0538
2023-04-17T09:51:43.155Z,5.8077
2023-04-17T09:52:45.713Z,4.8923
2023-04-17T09:53:48.363Z,5.0615
2023-04-17T09:54:50.849Z,5.0615
2023-04-17T09:55:53.467Z,5.1308
2023-04-17T09:56:56.213Z,5.4308
2023-04-17T09:57:58.625Z,5.1308
2023-04-17T09:59:01.193Z,4.9462
2023-04-17T10:00:03.786Z,5.6923
2023-04-17T10:01:06.401Z,5.0769
2023-04-17T10:02:09.092Z,4.8846
2023-04-17T10:03:11.760Z,5.3231
2023-04-17T10:04:14.440Z,5.0000
2023-04-17T10:05:16.672Z,5.0000
2023-04-17T10:06:19.306Z,5.2000
2023-04-17T10:07:21.842Z,4.8231
2023-04-17T10:08:24.451Z,4.5692
2023-04-17T10:09:27.043Z,5.0154
2023-04-17T10:10:29.670Z,5.2923
2023-04-17T10:11:32.196Z,4.7077
2023-04-17T10:12:35.113Z,4.7077
2023-04-17T10:13:37.337Z,4.6692
2023-04-17T10:14:39.953Z,4.6923
2023-04-17T10:15:42.500Z,5.1385
2023-04-17T10:16:45.327Z,13.7077
2023-04-17T10:17:47.677Z,31.6769
2023-04-17T10:18:50.293Z,31.9846
2023-04-17T10:19:52.852Z,23.7154
2023-04-17T10:20:55.534Z,15.3538
2023-04-17T10:21:58.006Z,13.7615
2023-04-17T10:23:00.617Z,12.1769
2023-04-17T10:24:03.174Z,11.5154
2023-04-17T10:25:05.768Z,11.5077
2023-04-17T10:26:08.335Z,10.9692
2023-04-17T10:27:10.958Z,11.6231
2023-04-17T10:28:13.507Z,12.2231
2023-04-17T10:29:16.109Z,11.8231
2023-04-17T10:31:21.311Z,10.4077
2023-04-17T10:32:23.818Z,10.4231
2023-04-17T10:33:26.470Z,11.0000
2023-04-17T10:34:29.045Z,11.7154
2023-04-17T10:35:31.603Z,12.0615
2023-04-17T10:36:34.156Z,11.5769
2023-04-17T10:37:36.764Z,11.7462
2023-04-17T10:38:39.319Z,10.9308
2023-04-17T10:39:41.928Z,11.1692
2023-04-17T10:40:44.548Z,11.1231
2023-04-17T10:41:47.106Z,10.8615
2023-04-17T10:42:49.661Z,10.3462
2023-04-17T10:43:52.290Z,10.7923
2023-04-17T10:44:54.845Z,10.4000
2023-04-17T10:45:57.531Z,11.1769
2023-04-17T10:46:59.993Z,10.6846
2023-04-17T10:48:02.697Z,10.2231
2023-04-17T10:49:05.185Z,10.4077
2023-04-17T10:50:07.790Z,9.7846
2023-04-17T10:51:10.355Z,9.9000
2023-04-17T10:52:12.944Z,10.6846
2023-04-17T10:53:15.504Z,9.1385
2023-04-17T10:54:18.114Z,9.6923
2023-04-17T10:55:20.686Z,9.6308
2023-04-17T10:56:23.285Z,9.3923
2023-04-17T10:57:26.176Z,9.4077
2023-04-17T10:58:31.616Z,9.4538
2023-04-17T10:59:31.010Z,9.7769
2023-04-17T11:00:33.628Z,9.7308
2023-04-17T11:01:36.197Z,10.1692
2023-04-17T11:02:38.841Z,9.8615
2023-04-17T11:03:41.375Z,25.6000
2023-04-17T11:04:43.979Z,21.5308
2023-04-17T11:05:46.524Z,15.6462
2023-04-17T11:06:49.136Z,13.6769
2023-04-17T11:07:51.676Z,11.6692
2023-04-17T11:08:55.615Z,12.4385
2023-04-17T11:09:56.824Z,13.2231
2023-04-17T11:10:59.461Z,12.6462
2023-04-17T11:12:02.383Z,13.6769
2023-04-17T11:13:04.606Z,12.1154
2023-04-17T11:14:07.152Z,11.5538
2023-04-17T11:15:09.818Z,11.6385
2023-04-17T11:16:12.318Z,11.4000
2023-04-17T11:17:14.954Z,11.7769
